sensor_id;sensor_type;location;lat;lon;timestamp;temperature;humidity
7502;DHT22;3792;47.740;7.606;2023-02-28T00:00:09;2.00;98.00
7502;DHT22;3792;47.740;7.606;2023-02-28T00:02:39;2.00;97.50
7502;DHT22;3792;47.740;7.606;2023-02-28T00:05:07;2.00;96.70
7502;DHT22;3792;47.740;7.606;2023-02-28T00:07:35;1.90;97.00
7502;DHT22;3792;47.740;7.606;2023-02-28T00:10:03;1.90;96.90
7502;DHT22;3792;47.740;7.606;2023-02-28T00:12:32;2.00;96.80
7502;DHT22;3792;47.740;7.606;2023-02-28T00:14:59;2.00;96.70
7502;DHT22;3792;47.740;7.606;2023-02-28T00:17:26;1.90;96.80
7502;DHT22;3792;47.740;7.606;2023-02-28T00:19:54;1.90;96.40
7502;DHT22;3792;47.740;7.606;2023-02-28T00:22:22;1.80;96.20
7502;DHT22;3792;47.740;7.606;2023-02-28T00:24:49;1.80;96.30
7502;DHT22;3792;47.740;7.606;2023-02-28T00:27:16;1.70;96.40
7502;DHT22;3792;47.740;7.606;2023-02-28T00:29:43;1.70;96.30
7502;DHT22;3792;47.740;7.606;2023-02-28T00:32:10;1.70;96.10
7502;DHT22;3792;47.740;7.606;2023-02-28T00:34:37;1.70;96.00
7502;DHT22;3792;47.740;7.606;2023-02-28T00:37:06;1.60;95.80
7502;DHT22;3792;47.740;7.606;2023-02-28T00:39:35;1.50;96.00
7502;DHT22;3792;47.740;7.606;2023-02-28T00:42:03;1.60;96.20
7502;DHT22;3792;47.740;7.606;2023-02-28T00:44:30;1.50;95.60
7502;DHT22;3792;47.740;7.606;2023-02-28T00:46:57;1.60;95.70
7502;DHT22;3792;47.740;7.606;2023-02-28T00:49:25;1.50;96.00
7502;DHT22;3792;47.740;7.606;2023-02-28T00:51:52;1.50;96.10
7502;DHT22;3792;47.740;7.606;2023-02-28T00:54:22;1.50;96.20
7502;DHT22;3792;47.740;7.606;2023-02-28T00:56:49;1.60;96.10
7502;DHT22;3792;47.740;7.606;2023-02-28T00:59:17;1.60;96.10
7502;DHT22;3792;47.740;7.606;2023-02-28T01:01:45;1.70;96.00
7502;DHT22;3792;47.740;7.606;2023-02-28T01:04:13;1.70;96.10
7502;DHT22;3792;47.740;7.606;2023-02-28T01:06:41;1.70;95.90
7502;DHT22;3792;47.740;7.606;2023-02-28T01:09:08;1.80;95.90
7502;DHT22;3792;47.740;7.606;2023-02-28T01:11:37;1.90;95.70
7502;DHT22;3792;47.740;7.606;2023-02-28T01:14:04;1.80;95.70
7502;DHT22;3792;47.740;7.606;2023-02-28T01:16:32;1.70;96.00
7502;DHT22;3792;47.740;7.606;2023-02-28T01:18:59;1.60;96.10
7502;DHT22;3792;47.740;7.606;2023-02-28T01:21:26;1.20;96.20
7502;DHT22;3792;47.740;7.606;2023-02-28T01:23:56;1.10;96.60
7502;DHT22;3792;47.740;7.606;2023-02-28T01:26:24;1.10;96.60
7502;DHT22;3792;47.740;7.606;2023-02-28T01:28:53;1.20;96.50
7502;DHT22;3792;47.740;7.606;2023-02-28T01:31:22;1.20;96.50
7502;DHT22;3792;47.740;7.606;2023-02-28T01:33:49;1.20;96.50
7502;DHT22;3792;47.740;7.606;2023-02-28T01:36:18;1.20;96.60
7502;DHT22;3792;47.740;7.606;2023-02-28T01:38:47;1.20;96.70
7502;DHT22;3792;47.740;7.606;2023-02-28T01:41:16;1.20;97.10
7502;DHT22;3792;47.740;7.606;2023-02-28T01:43:57;1.30;97.00
7502;DHT22;3792;47.740;7.606;2023-02-28T01:46:25;1.30;96.90
7502;DHT22;3792;47.740;7.606;2023-02-28T01:48:56;1.40;96.70
7502;DHT22;3792;47.740;7.606;2023-02-28T01:51:29;1.40;96.60
7502;DHT22;3792;47.740;7.606;2023-02-28T01:54:02;1.40;96.60
7502;DHT22;3792;47.740;7.606;2023-02-28T01:56:33;1.50;96.40
7502;DHT22;3792;47.740;7.606;2023-02-28T01:59:04;1.50;96.50
7502;DHT22;3792;47.740;7.606;2023-02-28T02:01:31;1.60;96.50
7502;DHT22;3792;47.740;7.606;2023-02-28T02:04:01;1.60;96.40
7502;DHT22;3792;47.740;7.606;2023-02-28T02:06:31;1.60;96.30
7502;DHT22;3792;47.740;7.606;2023-02-28T02:09:00;1.70;96.40
7502;DHT22;3792;47.740;7.606;2023-02-28T02:11:28;1.70;96.30
7502;DHT22;3792;47.740;7.606;2023-02-28T02:14:21;1.80;96.20
7502;DHT22;3792;47.740;7.606;2023-02-28T02:17:04;1.80;95.80
7502;DHT22;3792;47.740;7.606;2023-02-28T02:23:02;1.50;96.40
7502;DHT22;3792;47.740;7.606;2023-02-28T02:25:39;1.40;96.70
7502;DHT22;3792;47.740;7.606;2023-02-28T02:28:39;1.40;96.50
7502;DHT22;3792;47.740;7.606;2023-02-28T02:34:42;1.50;96.50
7502;DHT22;3792;47.740;7.606;2023-02-28T02:37:21;1.50;96.50
7502;DHT22;3792;47.740;7.606;2023-02-28T02:39:53;1.60;96.60
7502;DHT22;3792;47.740;7.606;2023-02-28T02:42:28;1.50;96.70
7502;DHT22;3792;47.740;7.606;2023-02-28T02:45:01;1.40;97.00
7502;DHT22;3792;47.740;7.606;2023-02-28T02:47:31;1.40;97.30
7502;DHT22;3792;47.740;7.606;2023-02-28T02:50:04;1.40;97.20
7502;DHT22;3792;47.740;7.606;2023-02-28T02:52:37;1.30;97.20
7502;DHT22;3792;47.740;7.606;2023-02-28T02:55:07;1.40;97.30
7502;DHT22;3792;47.740;7.606;2023-02-28T02:57:40;1.40;97.30
7502;DHT22;3792;47.740;7.606;2023-02-28T03:00:11;1.40;97.50
7502;DHT22;3792;47.740;7.606;2023-02-28T03:02:40;1.40;97.60
7502;DHT22;3792;47.740;7.606;2023-02-28T03:05:14;1.40;97.60
7502;DHT22;3792;47.740;7.606;2023-02-28T03:07:43;1.50;97.70
7502;DHT22;3792;47.740;7.606;2023-02-28T03:10:33;1.50;97.80
7502;DHT22;3792;47.740;7.606;2023-02-28T03:13:36;1.40;98.20
7502;DHT22;3792;47.740;7.606;2023-02-28T03:16:19;1.30;98.70
7502;DHT22;3792;47.740;7.606;2023-02-28T03:18:57;1.20;99.50
7502;DHT22;3792;47.740;7.606;2023-02-28T03:21:32;1.10;99.90
7502;DHT22;3792;47.740;7.606;2023-02-28T03:24:04;1.10;99.90
7502;DHT22;3792;47.740;7.606;2023-02-28T03:26:38;1.10;99.90
7502;DHT22;3792;47.740;7.606;2023-02-28T03:29:11;1.10;99.90
7502;DHT22;3792;47.740;7.606;2023-02-28T03:31:44;1.00;99.90
7502;DHT22;3792;47.740;7.606;2023-02-28T03:34:17;1.00;99.90
7502;DHT22;3792;47.740;7.606;2023-02-28T03:36:51;1.00;99.90
7502;DHT22;3792;47.740;7.606;2023-02-28T03:39:21;0.90;99.90
7502;DHT22;3792;47.740;7.606;2023-02-28T03:41:52;0.90;99.90
7502;DHT22;3792;47.740;7.606;2023-02-28T03:44:24;1.00;99.90
7502;DHT22;3792;47.740;7.606;2023-02-28T03:46:56;1.10;99.90
7502;DHT22;3792;47.740;7.606;2023-02-28T03:49:27;1.20;99.90
7502;DHT22;3792;47.740;7.606;2023-02-28T03:52:00;1.30;99.90
7502;DHT22;3792;47.740;7.606;2023-02-28T03:54:31;1.30;99.90
7502;DHT22;3792;47.740;7.606;2023-02-28T03:57:02;1.30;99.90
7502;DHT22;3792;47.740;7.606;2023-02-28T03:59:36;1.30;99.90
7502;DHT22;3792;47.740;7.606;2023-02-28T04:02:03;1.40;99.90
7502;DHT22;3792;47.740;7.606;2023-02-28T04:04:30;1.40;99.90
7502;DHT22;3792;47.740;7.606;2023-02-28T04:07:03;1.30;99.90
7502;DHT22;3792;47.740;7.606;2023-02-28T04:09:31;1.20;99.90
7502;DHT22;3792;47.740;7.606;2023-02-28T04:11:58;1.10;99.90
7502;DHT22;3792;47.740;7.606;2023-02-28T04:14:26;1.00;99.90
7502;DHT22;3792;47.740;7.606;2023-02-28T04:16:53;1.10;99.90
7502;DHT22;3792;47.740;7.606;2023-02-28T04:19:20;1.10;99.90
7502;DHT22;3792;47.740;7.606;2023-02-28T04:21:49;0.90;99.90
7502;DHT22;3792;47.740;7.606;2023-02-28T04:24:19;0.70;99.90
7502;DHT22;3792;47.740;7.606;2023-02-28T04:26:48;0.70;99.90
7502;DHT22;3792;47.740;7.606;2023-02-28T04:29:21;0.70;99.90
7502;DHT22;3792;47.740;7.606;2023-02-28T04:31:48;0.70;99.90
7502;DHT22;3792;47.740;7.606;2023-02-28T04:34:15;0.70;99.90
7502;DHT22;3792;47.740;7.606;2023-02-28T04:36:44;0.80;99.90
7502;DHT22;3792;47.740;7.606;2023-02-28T04:39:14;0.90;99.90
7502;DHT22;3792;47.740;7.606;2023-02-28T04:41:44;0.90;99.90
7502;DHT22;3792;47.740;7.606;2023-02-28T04:44:11;0.90;99.90
7502;DHT22;3792;47.740;7.606;2023-02-28T04:46:38;0.90;99.90
7502;DHT22;3792;47.740;7.606;2023-02-28T04:49:05;0.80;99.90
7502;DHT22;3792;47.740;7.606;2023-02-28T04:51:32;0.80;99.90
7502;DHT22;3792;47.740;7.606;2023-02-28T04:53:59;0.90;99.90
7502;DHT22;3792;47.740;7.606;2023-02-28T04:56:26;0.90;99.90
7502;DHT22;3792;47.740;7.606;2023-02-28T04:58:54;0.90;99.90
7502;DHT22;3792;47.740;7.606;2023-02-28T05:01:24;0.90;99.90
7502;DHT22;3792;47.740;7.606;2023-02-28T05:03:52;0.80;99.90
7502;DHT22;3792;47.740;7.606;2023-02-28T05:06:20;0.90;99.90
7502;DHT22;3792;47.740;7.606;2023-02-28T05:08:47;0.90;99.90
7502;DHT22;3792;47.740;7.606;2023-02-28T05:11:17;0.90;99.90
7502;DHT22;3792;47.740;7.606;2023-02-28T05:13:44;0.80;99.90
7502;DHT22;3792;47.740;7.606;2023-02-28T05:16:13;0.80;99.90
7502;DHT22;3792;47.740;7.606;2023-02-28T05:18:40;0.90;99.90
7502;DHT22;3792;47.740;7.606;2023-02-28T05:21:26;0.80;99.90
7502;DHT22;3792;47.740;7.606;2023-02-28T05:23:53;0.80;99.90
7502;DHT22;3792;47.740;7.606;2023-02-28T05:26:20;0.70;99.90
7502;DHT22;3792;47.740;7.606;2023-02-28T05:28:47;0.70;99.90
7502;DHT22;3792;47.740;7.606;2023-02-28T05:31:16;0.80;99.90
7502;DHT22;3792;47.740;7.606;2023-02-28T05:33:43;0.80;99.90
7502;DHT22;3792;47.740;7.606;2023-02-28T05:36:10;0.70;99.90
7502;DHT22;3792;47.740;7.606;2023-02-28T05:38:37;0.70;99.90
7502;DHT22;3792;47.740;7.606;2023-02-28T05:41:06;0.80;99.90
7502;DHT22;3792;47.740;7.606;2023-02-28T05:43:33;0.60;99.90
7502;DHT22;3792;47.740;7.606;2023-02-28T05:46:03;0.70;99.90
7502;DHT22;3792;47.740;7.606;2023-02-28T05:48:32;0.60;99.90
7502;DHT22;3792;47.740;7.606;2023-02-28T05:51:00;0.60;99.90
7502;DHT22;3792;47.740;7.606;2023-02-28T05:53:28;0.60;99.90
7502;DHT22;3792;47.740;7.606;2023-02-28T05:55:55;0.60;99.90
7502;DHT22;3792;47.740;7.606;2023-02-28T05:58:23;0.60;99.90
7502;DHT22;3792;47.740;7.606;2023-02-28T06:00:51;0.60;99.90
7502;DHT22;3792;47.740;7.606;2023-02-28T06:03:18;0.60;99.90
7502;DHT22;3792;47.740;7.606;2023-02-28T06:05:46;0.60;99.90
7502;DHT22;3792;47.740;7.606;2023-02-28T06:08:13;0.60;99.90
7502;DHT22;3792;47.740;7.606;2023-02-28T06:10:40;0.70;99.90
7502;DHT22;3792;47.740;7.606;2023-02-28T06:13:07;0.70;99.90
7502;DHT22;3792;47.740;7.606;2023-02-28T06:15:34;0.60;99.90
7502;DHT22;3792;47.740;7.606;2023-02-28T06:18:02;0.60;99.90
7502;DHT22;3792;47.740;7.606;2023-02-28T06:20:29;0.60;99.90
7502;DHT22;3792;47.740;7.606;2023-02-28T06:22:58;0.60;99.90
7502;DHT22;3792;47.740;7.606;2023-02-28T06:25:25;0.60;99.90
7502;DHT22;3792;47.740;7.606;2023-02-28T06:27:52;0.60;99.90
7502;DHT22;3792;47.740;7.606;2023-02-28T06:30:19;0.60;99.90
7502;DHT22;3792;47.740;7.606;2023-02-28T06:32:49;0.60;99.90
7502;DHT22;3792;47.740;7.606;2023-02-28T06:35:16;0.40;99.90
7502;DHT22;3792;47.740;7.606;2023-02-28T06:37:43;0.30;99.90
7502;DHT22;3792;47.740;7.606;2023-02-28T06:40:13;0.30;99.90
7502;DHT22;3792;47.740;7.606;2023-02-28T06:42:40;0.40;99.90
7502;DHT22;3792;47.740;7.606;2023-02-28T06:45:08;0.40;99.90
7502;DHT22;3792;47.740;7.606;2023-02-28T06:47:35;0.40;99.90
7502;DHT22;3792;47.740;7.606;2023-02-28T06:50:04;0.50;99.90
7502;DHT22;3792;47.740;7.606;2023-02-28T06:52:31;0.50;99.90
7502;DHT22;3792;47.740;7.606;2023-02-28T06:54:58;0.50;99.90
7502;DHT22;3792;47.740;7.606;2023-02-28T06:57:30;0.50;99.90
7502;DHT22;3792;47.740;7.606;2023-02-28T06:59:58;0.60;99.90
7502;DHT22;3792;47.740;7.606;2023-02-28T07:02:25;0.60;99.90
7502;DHT22;3792;47.740;7.606;2023-02-28T07:04:52;0.70;99.90
7502;DHT22;3792;47.740;7.606;2023-02-28T07:07:19;0.70;99.90
7502;DHT22;3792;47.740;7.606;2023-02-28T07:09:46;0.70;99.90
7502;DHT22;3792;47.740;7.606;2023-02-28T07:12:13;0.70;99.90
7502;DHT22;3792;47.740;7.606;2023-02-28T07:14:42;0.70;99.90
7502;DHT22;3792;47.740;7.606;2023-02-28T07:17:10;0.70;99.90
7502;DHT22;3792;47.740;7.606;2023-02-28T07:19:38;0.60;99.90
7502;DHT22;3792;47.740;7.606;2023-02-28T07:22:05;0.60;99.90
7502;DHT22;3792;47.740;7.606;2023-02-28T07:24:32;0.60;99.90
7502;DHT22;3792;47.740;7.606;2023-02-28T07:26:59;0.60;99.90
7502;DHT22;3792;47.740;7.606;2023-02-28T07:29:27;0.70;99.90
7502;DHT22;3792;47.740;7.606;2023-02-28T07:31:55;0.70;99.90
7502;DHT22;3792;47.740;7.606;2023-02-28T07:34:23;0.70;99.90
7502;DHT22;3792;47.740;7.606;2023-02-28T07:36:53;0.70;99.90
7502;DHT22;3792;47.740;7.606;2023-02-28T07:39:20;0.60;99.90
7502;DHT22;3792;47.740;7.606;2023-02-28T07:41:47;0.70;99.90
7502;DHT22;3792;47.740;7.606;2023-02-28T07:44:14;0.70;99.90
7502;DHT22;3792;47.740;7.606;2023-02-28T07:46:41;0.60;99.90
7502;DHT22;3792;47.740;7.606;2023-02-28T07:49:10;0.60;99.90
7502;DHT22;3792;47.740;7.606;2023-02-28T07:51:37;0.60;99.90
7502;DHT22;3792;47.740;7.606;2023-02-28T07:54:04;0.60;99.90
7502;DHT22;3792;47.740;7.606;2023-02-28T07:56:31;0.70;99.90
7502;DHT22;3792;47.740;7.606;2023-02-28T07:58:58;0.70;99.90
7502;DHT22;3792;47.740;7.606;2023-02-28T08:01:27;0.70;99.90
7502;DHT22;3792;47.740;7.606;2023-02-28T08:03:54;0.80;99.90
7502;DHT22;3792;47.740;7.606;2023-02-28T08:06:24;0.80;99.90
7502;DHT22;3792;47.740;7.606;2023-02-28T08:08:53;0.70;99.90
7502;DHT22;3792;47.740;7.606;2023-02-28T08:11:21;0.80;99.90
7502;DHT22;3792;47.740;7.606;2023-02-28T08:13:49;0.70;99.90
7502;DHT22;3792;47.740;7.606;2023-02-28T08:16:16;0.80;99.90
7502;DHT22;3792;47.740;7.606;2023-02-28T08:18:47;0.90;99.90
7502;DHT22;3792;47.740;7.606;2023-02-28T08:21:15;1.00;99.90
7502;DHT22;3792;47.740;7.606;2023-02-28T08:23:43;1.10;99.90
7502;DHT22;3792;47.740;7.606;2023-02-28T08:26:10;1.20;99.90
7502;DHT22;3792;47.740;7.606;2023-02-28T08:28:37;1.20;99.90
7502;DHT22;3792;47.740;7.606;2023-02-28T08:31:08;1.20;99.90
7502;DHT22;3792;47.740;7.606;2023-02-28T08:33:35;1.30;99.90
7502;DHT22;3792;47.740;7.606;2023-02-28T08:36:05;1.40;99.90
7502;DHT22;3792;47.740;7.606;2023-02-28T08:38:32;1.50;99.90
7502;DHT22;3792;47.740;7.606;2023-02-28T08:41:03;1.50;99.90
7502;DHT22;3792;47.740;7.606;2023-02-28T08:43:31;1.50;99.90
7502;DHT22;3792;47.740;7.606;2023-02-28T08:45:58;1.50;99.90
7502;DHT22;3792;47.740;7.606;2023-02-28T08:48:26;1.40;99.90
7502;DHT22;3792;47.740;7.606;2023-02-28T08:50:57;1.30;99.90
7502;DHT22;3792;47.740;7.606;2023-02-28T08:53:24;1.10;99.90
7502;DHT22;3792;47.740;7.606;2023-02-28T08:55:58;1.20;99.90
7502;DHT22;3792;47.740;7.606;2023-02-28T08:58:26;1.20;99.90
7502;DHT22;3792;47.740;7.606;2023-02-28T09:00:54;1.40;99.90
7502;DHT22;3792;47.740;7.606;2023-02-28T09:03:21;1.40;99.90
7502;DHT22;3792;47.740;7.606;2023-02-28T09:05:53;1.40;99.90
7502;DHT22;3792;47.740;7.606;2023-02-28T09:08:20;1.30;99.90
7502;DHT22;3792;47.740;7.606;2023-02-28T09:10:47;1.20;99.90
7502;DHT22;3792;47.740;7.606;2023-02-28T09:13:14;1.10;99.90
7502;DHT22;3792;47.740;7.606;2023-02-28T09:15:43;1.20;99.90
7502;DHT22;3792;47.740;7.606;2023-02-28T09:18:10;1.20;99.90
7502;DHT22;3792;47.740;7.606;2023-02-28T09:20:38;1.20;99.90
7502;DHT22;3792;47.740;7.606;2023-02-28T09:23:06;1.00;99.90
7502;DHT22;3792;47.740;7.606;2023-02-28T09:25:35;1.10;99.90
7502;DHT22;3792;47.740;7.606;2023-02-28T09:28:02;1.10;99.90
7502;DHT22;3792;47.740;7.606;2023-02-28T09:30:30;1.10;99.90
7502;DHT22;3792;47.740;7.606;2023-02-28T09:32:59;1.30;99.90
7502;DHT22;3792;47.740;7.606;2023-02-28T09:35:26;1.30;99.90
7502;DHT22;3792;47.740;7.606;2023-02-28T09:37:53;1.40;99.90
7502;DHT22;3792;47.740;7.606;2023-02-28T09:40:22;1.40;99.90
7502;DHT22;3792;47.740;7.606;2023-02-28T09:42:53;1.40;99.90
7502;DHT22;3792;47.740;7.606;2023-02-28T09:45:24;1.50;99.90
7502;DHT22;3792;47.740;7.606;2023-02-28T09:47:56;1.60;99.90
7502;DHT22;3792;47.740;7.606;2023-02-28T09:50:33;1.70;99.90
7502;DHT22;3792;47.740;7.606;2023-02-28T09:53:09;1.60;99.90
7502;DHT22;3792;47.740;7.606;2023-02-28T09:55:43;1.60;99.90
7502;DHT22;3792;47.740;7.606;2023-02-28T09:58:17;1.60;99.90
7502;DHT22;3792;47.740;7.606;2023-02-28T10:00:51;1.70;99.90
7502;DHT22;3792;47.740;7.606;2023-02-28T10:03:34;1.90;99.90
7502;DHT22;3792;47.740;7.606;2023-02-28T10:06:09;1.90;99.90
7502;DHT22;3792;47.740;7.606;2023-02-28T10:08:39;1.80;99.90
7502;DHT22;3792;47.740;7.606;2023-02-28T10:11:14;1.80;99.90
7502;DHT22;3792;47.740;7.606;2023-02-28T10:13:51;1.90;99.90
7502;DHT22;3792;47.740;7.606;2023-02-28T10:16:25;1.90;99.90
7502;DHT22;3792;47.740;7.606;2023-02-28T10:18:57;2.10;99.90
7502;DHT22;3792;47.740;7.606;2023-02-28T10:21:30;2.10;99.90
7502;DHT22;3792;47.740;7.606;2023-02-28T10:24:04;2.30;99.90
7502;DHT22;3792;47.740;7.606;2023-02-28T10:26:36;2.40;99.90
7502;DHT22;3792;47.740;7.606;2023-02-28T10:29:03;2.50;99.90
7502;DHT22;3792;47.740;7.606;2023-02-28T10:31:30;2.60;99.90
7502;DHT22;3792;47.740;7.606;2023-02-28T10:33:57;2.50;99.90
7502;DHT22;3792;47.740;7.606;2023-02-28T10:36:24;2.60;99.90
7502;DHT22;3792;47.740;7.606;2023-02-28T10:38:53;2.60;99.90
7502;DHT22;3792;47.740;7.606;2023-02-28T10:41:28;2.70;99.90
7502;DHT22;3792;47.740;7.606;2023-02-28T10:44:14;2.90;99.90
7502;DHT22;3792;47.740;7.606;2023-02-28T10:46:42;2.80;99.90
7502;DHT22;3792;47.740;7.606;2023-02-28T10:49:15;2.60;99.90
7502;DHT22;3792;47.740;7.606;2023-02-28T10:51:44;2.60;99.90
7502;DHT22;3792;47.740;7.606;2023-02-28T10:54:22;2.70;99.90
7502;DHT22;3792;47.740;7.606;2023-02-28T10:57:07;2.70;99.90
7502;DHT22;3792;47.740;7.606;2023-02-28T10:59:34;2.70;99.90
7502;DHT22;3792;47.740;7.606;2023-02-28T11:02:01;2.80;99.90
7502;DHT22;3792;47.740;7.606;2023-02-28T11:04:35;2.90;99.90
7502;DHT22;3792;47.740;7.606;2023-02-28T11:07:06;2.90;99.90
7502;DHT22;3792;47.740;7.606;2023-02-28T11:09:36;2.80;99.90
7502;DHT22;3792;47.740;7.606;2023-02-28T11:12:06;2.80;99.90
7502;DHT22;3792;47.740;7.606;2023-02-28T11:14:46;2.80;99.90
7502;DHT22;3792;47.740;7.606;2023-02-28T11:17:18;2.80;99.90
7502;DHT22;3792;47.740;7.606;2023-02-28T11:19:49;2.80;99.90
7502;DHT22;3792;47.740;7.606;2023-02-28T11:22:19;3.00;99.90
7502;DHT22;3792;47.740;7.606;2023-02-28T11:24:51;3.10;99.90
7502;DHT22;3792;47.740;7.606;2023-02-28T11:27:41;3.20;99.90
7502;DHT22;3792;47.740;7.606;2023-02-28T11:30:30;3.20;99.90
7502;DHT22;3792;47.740;7.606;2023-02-28T11:32:59;3.40;99.90
7502;DHT22;3792;47.740;7.606;2023-02-28T11:35:28;3.20;99.90
7502;DHT22;3792;47.740;7.606;2023-02-28T11:37:57;3.20;99.90
7502;DHT22;3792;47.740;7.606;2023-02-28T11:40:31;3.20;99.90
7502;DHT22;3792;47.740;7.606;2023-02-28T11:43:18;3.20;99.90
7502;DHT22;3792;47.740;7.606;2023-02-28T11:45:58;3.30;99.90
7502;DHT22;3792;47.740;7.606;2023-02-28T11:48:30;3.50;99.90
7502;DHT22;3792;47.740;7.606;2023-02-28T11:51:06;3.60;99.90
7502;DHT22;3792;47.740;7.606;2023-02-28T11:53:48;3.60;99.90
7502;DHT22;3792;47.740;7.606;2023-02-28T11:56:22;3.70;99.90
7502;DHT22;3792;47.740;7.606;2023-02-28T11:58:55;3.70;99.90
7502;DHT22;3792;47.740;7.606;2023-02-28T12:01:38;3.80;99.90
7502;DHT22;3792;47.740;7.606;2023-02-28T12:04:20;4.00;99.90
7502;DHT22;3792;47.740;7.606;2023-02-28T12:06:54;3.90;99.90
7502;DHT22;3792;47.740;7.606;2023-02-28T12:09:35;3.90;99.90
7502;DHT22;3792;47.740;7.606;2023-02-28T12:12:15;4.00;99.90
7502;DHT22;3792;47.740;7.606;2023-02-28T12:15:02;4.00;99.90
7502;DHT22;3792;47.740;7.606;2023-02-28T12:17:43;4.20;99.90
7502;DHT22;3792;47.740;7.606;2023-02-28T12:20:18;4.20;99.90
7502;DHT22;3792;47.740;7.606;2023-02-28T12:22:56;4.30;99.90
7502;DHT22;3792;47.740;7.606;2023-02-28T12:25:50;4.40;99.90
7502;DHT22;3792;47.740;7.606;2023-02-28T12:28:26;4.40;99.90
7502;DHT22;3792;47.740;7.606;2023-02-28T12:30:58;4.50;99.90
7502;DHT22;3792;47.740;7.606;2023-02-28T12:33:31;4.50;99.90
7502;DHT22;3792;47.740;7.606;2023-02-28T12:36:03;4.50;99.90
7502;DHT22;3792;47.740;7.606;2023-02-28T12:38:37;4.60;99.90
7502;DHT22;3792;47.740;7.606;2023-02-28T12:41:12;4.60;99.90
7502;DHT22;3792;47.740;7.606;2023-02-28T12:43:44;4.50;99.90
7502;DHT22;3792;47.740;7.606;2023-02-28T12:46:16;4.40;99.90
7502;DHT22;3792;47.740;7.606;2023-02-28T12:48:47;4.40;99.90
7502;DHT22;3792;47.740;7.606;2023-02-28T12:51:16;4.40;99.90
7502;DHT22;3792;47.740;7.606;2023-02-28T12:53:52;4.40;99.90
7502;DHT22;3792;47.740;7.606;2023-02-28T12:56:30;4.30;99.90
7502;DHT22;3792;47.740;7.606;2023-02-28T12:59:04;4.30;99.90
7502;DHT22;3792;47.740;7.606;2023-02-28T13:01:45;4.20;99.90
7502;DHT22;3792;47.740;7.606;2023-02-28T13:04:34;4.10;99.90
7502;DHT22;3792;47.740;7.606;2023-02-28T13:07:28;4.10;99.90
7502;DHT22;3792;47.740;7.606;2023-02-28T13:10:00;4.00;99.90
7502;DHT22;3792;47.740;7.606;2023-02-28T13:12:28;4.10;99.90
7502;DHT22;3792;47.740;7.606;2023-02-28T13:15:06;4.20;99.90
7502;DHT22;3792;47.740;7.606;2023-02-28T13:17:39;4.30;99.90
7502;DHT22;3792;47.740;7.606;2023-02-28T13:20:16;4.30;99.90
7502;DHT22;3792;47.740;7.606;2023-02-28T13:22:45;4.30;99.90
7502;DHT22;3792;47.740;7.606;2023-02-28T13:25:50;4.30;99.90
7502;DHT22;3792;47.740;7.606;2023-02-28T13:31:20;4.30;99.90
7502;DHT22;3792;47.740;7.606;2023-02-28T13:34:05;4.40;99.90
7502;DHT22;3792;47.740;7.606;2023-02-28T13:36:38;4.50;99.80
7502;DHT22;3792;47.740;7.606;2023-02-28T13:39:46;4.60;99.80
7502;DHT22;3792;47.740;7.606;2023-02-28T13:42:32;4.50;99.80
7502;DHT22;3792;47.740;7.606;2023-02-28T13:45:23;4.40;99.80
7502;DHT22;3792;47.740;7.606;2023-02-28T13:47:58;4.50;99.90
7502;DHT22;3792;47.740;7.606;2023-02-28T13:50:32;4.60;99.90
7502;DHT22;3792;47.740;7.606;2023-02-28T13:53:32;4.60;99.70
7502;DHT22;3792;47.740;7.606;2023-02-28T13:56:07;4.60;99.90
7502;DHT22;3792;47.740;7.606;2023-02-28T13:58:42;4.60;99.90
7502;DHT22;3792;47.740;7.606;2023-02-28T14:01:42;4.60;99.80
7502;DHT22;3792;47.740;7.606;2023-02-28T14:07:18;4.50;99.80
7502;DHT22;3792;47.740;7.606;2023-02-28T14:09:53;4.50;99.90
7502;DHT22;3792;47.740;7.606;2023-02-28T14:15:49;4.60;99.90
7502;DHT22;3792;47.740;7.606;2023-02-28T14:18:28;4.70;99.90
7502;DHT22;3792;47.740;7.606;2023-02-28T14:21:02;4.70;99.90
7502;DHT22;3792;47.740;7.606;2023-02-28T14:24:00;4.60;99.90
7502;DHT22;3792;47.740;7.606;2023-02-28T14:26:37;4.50;99.90
7502;DHT22;3792;47.740;7.606;2023-02-28T14:29:32;4.50;99.90
7502;DHT22;3792;47.740;7.606;2023-02-28T14:32:06;4.50;99.90
7502;DHT22;3792;47.740;7.606;2023-02-28T14:34:42;4.50;99.90
7502;DHT22;3792;47.740;7.606;2023-02-28T14:37:23;4.30;99.90
7502;DHT22;3792;47.740;7.606;2023-02-28T14:39:53;4.20;99.90
7502;DHT22;3792;47.740;7.606;2023-02-28T14:42:29;4.20;99.90
7502;DHT22;3792;47.740;7.606;2023-02-28T14:44:57;4.30;99.90
7502;DHT22;3792;47.740;7.606;2023-02-28T14:47:28;4.20;99.90
7502;DHT22;3792;47.740;7.606;2023-02-28T14:49:57;4.20;99.90
7502;DHT22;3792;47.740;7.606;2023-02-28T14:52:27;4.20;99.90
7502;DHT22;3792;47.740;7.606;2023-02-28T14:54:56;4.30;99.90
7502;DHT22;3792;47.740;7.606;2023-02-28T14:57:26;4.30;99.90
7502;DHT22;3792;47.740;7.606;2023-02-28T15:00:01;4.40;99.90
7502;DHT22;3792;47.740;7.606;2023-02-28T15:02:36;4.30;99.90
7502;DHT22;3792;47.740;7.606;2023-02-28T15:05:21;4.40;99.90
7502;DHT22;3792;47.740;7.606;2023-02-28T15:08:02;4.40;99.90
7502;DHT22;3792;47.740;7.606;2023-02-28T15:10:29;4.40;99.90
7502;DHT22;3792;47.740;7.606;2023-02-28T15:12:58;4.40;99.90
7502;DHT22;3792;47.740;7.606;2023-02-28T15:15:29;4.40;99.90
7502;DHT22;3792;47.740;7.606;2023-02-28T15:18:01;4.30;99.90
7502;DHT22;3792;47.740;7.606;2023-02-28T15:20:29;4.10;99.90
7502;DHT22;3792;47.740;7.606;2023-02-28T15:22:58;4.10;99.90
7502;DHT22;3792;47.740;7.606;2023-02-28T15:25:26;4.00;99.90
7502;DHT22;3792;47.740;7.606;2023-02-28T15:27:55;4.00;99.90
7502;DHT22;3792;47.740;7.606;2023-02-28T15:30:25;4.00;99.90
7502;DHT22;3792;47.740;7.606;2023-02-28T15:33:04;4.00;99.90
7502;DHT22;3792;47.740;7.606;2023-02-28T15:35:34;4.10;99.90
7502;DHT22;3792;47.740;7.606;2023-02-28T15:38:05;3.90;99.90
7502;DHT22;3792;47.740;7.606;2023-02-28T15:40:42;3.90;99.90
7502;DHT22;3792;47.740;7.606;2023-02-28T15:43:14;4.00;99.90
7502;DHT22;3792;47.740;7.606;2023-02-28T15:45:45;3.90;99.90
7502;DHT22;3792;47.740;7.606;2023-02-28T15:48:18;3.90;99.90
7502;DHT22;3792;47.740;7.606;2023-02-28T15:50:49;4.00;99.90
7502;DHT22;3792;47.740;7.606;2023-02-28T15:53:21;4.00;99.90
7502;DHT22;3792;47.740;7.606;2023-02-28T15:55:54;4.00;99.90
7502;DHT22;3792;47.740;7.606;2023-02-28T15:58:22;3.90;99.90
7502;DHT22;3792;47.740;7.606;2023-02-28T16:01:16;3.80;99.90
7502;DHT22;3792;47.740;7.606;2023-02-28T16:03:47;3.70;99.90
7502;DHT22;3792;47.740;7.606;2023-02-28T16:06:33;3.80;99.90
7502;DHT22;3792;47.740;7.606;2023-02-28T16:09:04;3.70;99.90
7502;DHT22;3792;47.740;7.606;2023-02-28T16:11:34;3.70;99.90
7502;DHT22;3792;47.740;7.606;2023-02-28T16:14:02;3.70;99.90
7502;DHT22;3792;47.740;7.606;2023-02-28T16:16:31;3.80;99.90
7502;DHT22;3792;47.740;7.606;2023-02-28T16:18:58;3.70;99.90
7502;DHT22;3792;47.740;7.606;2023-02-28T16:21:25;3.70;99.90
7502;DHT22;3792;47.740;7.606;2023-02-28T16:23:53;3.60;99.90
7502;DHT22;3792;47.740;7.606;2023-02-28T16:26:23;3.60;99.90
7502;DHT22;3792;47.740;7.606;2023-02-28T16:28:53;3.60;99.90
7502;DHT22;3792;47.740;7.606;2023-02-28T16:31:21;3.60;99.90
7502;DHT22;3792;47.740;7.606;2023-02-28T16:33:48;3.60;99.90
7502;DHT22;3792;47.740;7.606;2023-02-28T16:36:16;3.70;99.90
7502;DHT22;3792;47.740;7.606;2023-02-28T16:38:44;3.70;99.90
7502;DHT22;3792;47.740;7.606;2023-02-28T16:41:14;3.80;99.90
7502;DHT22;3792;47.740;7.606;2023-02-28T16:43:47;3.70;99.90
7502;DHT22;3792;47.740;7.606;2023-02-28T16:46:15;3.70;99.90
7502;DHT22;3792;47.740;7.606;2023-02-28T16:48:43;3.60;99.90
7502;DHT22;3792;47.740;7.606;2023-02-28T16:51:15;3.60;99.90
7502;DHT22;3792;47.740;7.606;2023-02-28T16:53:43;3.80;99.90
7502;DHT22;3792;47.740;7.606;2023-02-28T16:56:16;4.10;99.90
7502;DHT22;3792;47.740;7.606;2023-02-28T16:58:43;4.60;99.90
7502;DHT22;3792;47.740;7.606;2023-02-28T17:01:11;5.00;99.90